Wetter

Link zur aktuellen Windanzeige


Nordholz:

METAR:

2022/07/05 12:20 ETMN 051220Z 29009KT 9999 FEW030TCU BKN060 16/11 Q1021 RESHRA BLU BLU TEMPO WHT

TAF:

2022/07/05 11:31 TAF ETMN 051008Z 0511/0520 28010KT 9999 NSW SCT030 BKN060 TEMPO 0511/0517 29015G25KT 5000 SHRA BKN020TCU

Wind EDXN:

05.07. 11:40z 270/08G15kt
05.07. 11:50z 250/11G21kt
05.07. 12:00z 270/07G16kt
05.07. 12:10z 260/06G11kt
05.07. 12:20z 290/07G11kt
05.07. 12:30z 290/10G14kt
05.07. 12:40z 300/10G18kt
05.07. 12:50z 280/08G12kt
05.07. 13:00z 280/07G15kt
05.07. 13:10z 260/10G15kt

Bremen:

METAR:

2022/07/05 12:50 EDDW 051250Z AUTO 28012KT 220V310 9999 SCT049 21/08 Q1021 NOSIG

TAF:

2022/07/05 12:27 TAF EDDW 051100Z 0512/0612 29011KT 9999 FEW045 BECMG 0518/0520 27005KT BECMG 0606/0608 29010KT

Hamburg:

METAR:

2022/07/05 12:50 EDDH 051250Z AUTO 27010KT 240V300 9999 SCT049 20/09 Q1020 NOSIG

TAF:

2022/07/05 12:27 TAF EDDH 051100Z 0512/0618 28012KT 9999 FEW045 BECMG 0518/0520 29005KT BECMG 0607/0609 29010KT

Hannover:

METAR:

2022/07/05 12:50 EDDV 051250Z AUTO 27009KT 230V310 CAVOK 23/08 Q1021 NOSIG

TAF:

2022/07/05 12:27 TAF EDDV 051100Z 0512/0612 29011KT CAVOK BECMG 0518/0520 28005KT BECMG 0606/0608 29010KT

Wikipedia Artikel: METARTAF

Daten von Aviation Weather Center der NOAA, es kann keine Garantie für Aktualität und Richtigkeit der Daten übernommen werden.

Die Nutzung dieser Daten zur Flugplanung ist nicht zulässig!

Inoffizielle ATIS 🙂